CheckWX is a tool to help pilots better visualize weather data.  It is not intended as a substitute for an official pre-flight weather briefing.

09:24:59 UTC

KOCQ METAR
Oconto-J Douglas Bake Municipal Airport
Oconto, Wisconsin, USA
Current

10 mins ago

KOCQ 220915Z AUTO 10016G23KT 7SM SCT048 BKN060 OVC100 07/06 A2993 RMK AO1 P0003 T00720057
Observed
May-22 @ 09:15 UTC
Wind
  • 100° at 16 KTS
  • Gusting to 23 KTS
Visibility
7 SM
Flight Rules
VFR
Cloud Levels
  • Scattered at 4,800' AGL
  • Broken at 6,000' AGL
  • Overcast at 10,000' AGL
Temperature
C / 45°F
Dewpoint
C / 43°F
Humidity
93%
Altimeter
29.93" Hg
Pressure
1013.52 hPa
Current Rain
0.03"
Previous

30 mins ago

KOCQ 220855Z AUTO 11012KT 7SM BKN060 OVC075 08/05 A2999 RMK AO1 P0013 60013 T00780053
Observed
May-22 @ 08:55 UTC
Wind
  • 110° at 12 KTS
Visibility
7 SM
Flight Rules
VFR
Cloud Levels
  • Broken at 6,000' AGL
  • Overcast at 7,500' AGL
Temperature
C / 46°F
Dewpoint
C / 41°F
Humidity
82%
Altimeter
29.99" Hg
Pressure
1015.62 hPa
Current Rain
0.13"
Previous

50 mins ago

KOCQ 220835Z AUTO 12010KT 7SM SCT046 SCT065 OVC070 08/05 A3000 RMK AO1 P0006 T00820051
Observed
May-22 @ 08:35 UTC
Wind
  • 120° at 10 KTS
Visibility
7 SM
Flight Rules
VFR
Cloud Levels
  • Scattered at 4,600' AGL
  • Scattered at 6,500' AGL
  • Overcast at 7,000' AGL
Temperature
C / 46°F
Dewpoint
C / 41°F
Humidity
82%
Altimeter
30" Hg
Pressure
1015.92 hPa
Current Rain
0.06"